sensor_id;sensor_type;location;lat;lon;timestamp;temperature;humidity
13721;DHT22;6932;51.438;5.470;2023-05-16T00:00:50;18.60;75.00
13721;DHT22;6932;51.438;5.470;2023-05-16T00:06:58;18.50;74.90
13721;DHT22;6932;51.438;5.470;2023-05-16T00:09:24;18.60;74.70
13721;DHT22;6932;51.438;5.470;2023-05-16T00:11:49;18.50;74.70
13721;DHT22;6932;51.438;5.470;2023-05-16T00:14:15;18.50;74.60
13721;DHT22;6932;51.438;5.470;2023-05-16T00:16:41;18.50;74.70
13721;DHT22;6932;51.438;5.470;2023-05-16T00:19:07;18.50;74.50
13721;DHT22;6932;51.438;5.470;2023-05-16T00:25:14;18.40;74.30
13721;DHT22;6932;51.438;5.470;2023-05-16T00:27:39;18.40;74.00
13721;DHT22;6932;51.438;5.470;2023-05-16T00:30:06;18.40;74.10
13721;DHT22;6932;51.438;5.470;2023-05-16T00:32:32;18.40;74.20
13721;DHT22;6932;51.438;5.470;2023-05-16T00:34:58;18.30;74.20
13721;DHT22;6932;51.438;5.470;2023-05-16T00:37:24;18.30;74.30
13721;DHT22;6932;51.438;5.470;2023-05-16T00:39:49;18.30;74.10
13721;DHT22;6932;51.438;5.470;2023-05-16T00:42:17;18.30;74.20
13721;DHT22;6932;51.438;5.470;2023-05-16T00:44:44;18.30;74.10
13721;DHT22;6932;51.438;5.470;2023-05-16T00:47:10;18.30;74.00
13721;DHT22;6932;51.438;5.470;2023-05-16T00:49:36;18.30;73.80
13721;DHT22;6932;51.438;5.470;2023-05-16T00:52:02;18.30;73.80
13721;DHT22;6932;51.438;5.470;2023-05-16T00:54:29;18.30;73.60
13721;DHT22;6932;51.438;5.470;2023-05-16T00:56:55;18.30;73.40
13721;DHT22;6932;51.438;5.470;2023-05-16T00:59:23;18.30;73.60
13721;DHT22;6932;51.438;5.470;2023-05-16T01:01:50;18.30;73.40
13721;DHT22;6932;51.438;5.470;2023-05-16T01:04:17;18.30;73.30
13721;DHT22;6932;51.438;5.470;2023-05-16T01:13:42;18.30;73.00
13721;DHT22;6932;51.438;5.470;2023-05-16T01:22:37;18.10;72.80
13721;DHT22;6932;51.438;5.470;2023-05-16T01:26:30;18.10;72.90
13721;DHT22;6932;51.438;5.470;2023-05-16T01:28:40;18.00;72.80
13721;DHT22;6932;51.438;5.470;2023-05-16T01:31:06;18.00;72.90
13721;DHT22;6932;51.438;5.470;2023-05-16T01:33:32;17.90;72.80
13721;DHT22;6932;51.438;5.470;2023-05-16T01:39:32;17.90;72.80
13721;DHT22;6932;51.438;5.470;2023-05-16T01:42:13;17.90;72.80
13721;DHT22;6932;51.438;5.470;2023-05-16T01:45:28;17.80;72.70
13721;DHT22;6932;51.438;5.470;2023-05-16T01:47:37;17.80;72.50
13721;DHT22;6932;51.438;5.470;2023-05-16T01:50:16;17.80;72.50
13721;DHT22;6932;51.438;5.470;2023-05-16T01:55:43;17.70;72.50
13721;DHT22;6932;51.438;5.470;2023-05-16T01:58:13;17.70;72.50
13721;DHT22;6932;51.438;5.470;2023-05-16T02:00:40;17.60;72.50
13721;DHT22;6932;51.438;5.470;2023-05-16T02:03:07;17.60;72.50
13721;DHT22;6932;51.438;5.470;2023-05-16T02:05:33;17.60;72.60
13721;DHT22;6932;51.438;5.470;2023-05-16T02:07:59;17.60;72.50
13721;DHT22;6932;51.438;5.470;2023-05-16T02:10:26;17.60;72.50
13721;DHT22;6932;51.438;5.470;2023-05-16T02:12:52;17.50;72.40
13721;DHT22;6932;51.438;5.470;2023-05-16T02:15:18;17.50;72.30
13721;DHT22;6932;51.438;5.470;2023-05-16T02:17:44;17.50;72.30
13721;DHT22;6932;51.438;5.470;2023-05-16T02:20:11;17.50;72.10
13721;DHT22;6932;51.438;5.470;2023-05-16T02:22:38;17.50;72.10
13721;DHT22;6932;51.438;5.470;2023-05-16T02:25:04;17.50;72.10
13721;DHT22;6932;51.438;5.470;2023-05-16T02:27:31;17.40;72.10
13721;DHT22;6932;51.438;5.470;2023-05-16T02:29:57;17.40;72.10
13721;DHT22;6932;51.438;5.470;2023-05-16T02:32:23;17.40;72.70
13721;DHT22;6932;51.438;5.470;2023-05-16T02:34:49;17.40;72.10
13721;DHT22;6932;51.438;5.470;2023-05-16T02:37:15;17.40;72.00
13721;DHT22;6932;51.438;5.470;2023-05-16T02:39:41;17.40;72.10
13721;DHT22;6932;51.438;5.470;2023-05-16T02:42:06;17.40;72.10
13721;DHT22;6932;51.438;5.470;2023-05-16T02:44:32;17.30;72.00
13721;DHT22;6932;51.438;5.470;2023-05-16T02:46:58;17.30;72.00
13721;DHT22;6932;51.438;5.470;2023-05-16T02:49:24;17.30;72.00
13721;DHT22;6932;51.438;5.470;2023-05-16T02:51:50;17.30;71.80
13721;DHT22;6932;51.438;5.470;2023-05-16T02:54:16;17.30;71.80
13721;DHT22;6932;51.438;5.470;2023-05-16T02:56:42;17.20;71.80
13721;DHT22;6932;51.438;5.470;2023-05-16T02:59:10;17.20;71.80
13721;DHT22;6932;51.438;5.470;2023-05-16T03:01:36;17.20;72.00
13721;DHT22;6932;51.438;5.470;2023-05-16T03:07:43;17.20;72.00
13721;DHT22;6932;51.438;5.470;2023-05-16T03:10:09;17.20;72.00
13721;DHT22;6932;51.438;5.470;2023-05-16T03:12:35;17.10;71.90
13721;DHT22;6932;51.438;5.470;2023-05-16T03:15:01;17.10;71.90
13721;DHT22;6932;51.438;5.470;2023-05-16T03:17:28;17.10;72.00
13721;DHT22;6932;51.438;5.470;2023-05-16T03:19:54;17.10;72.10
13721;DHT22;6932;51.438;5.470;2023-05-16T03:22:19;17.10;72.20
13721;DHT22;6932;51.438;5.470;2023-05-16T03:31:36;17.00;72.00
13721;DHT22;6932;51.438;5.470;2023-05-16T03:34:01;17.00;72.10
13721;DHT22;6932;51.438;5.470;2023-05-16T03:36:28;17.00;72.20
13721;DHT22;6932;51.438;5.470;2023-05-16T03:38:53;16.90;72.20
13721;DHT22;6932;51.438;5.470;2023-05-16T03:41:20;16.90;72.40
13721;DHT22;6932;51.438;5.470;2023-05-16T03:43:46;16.90;72.40
13721;DHT22;6932;51.438;5.470;2023-05-16T03:46:12;16.90;72.50
13721;DHT22;6932;51.438;5.470;2023-05-16T03:48:37;16.90;72.50
13721;DHT22;6932;51.438;5.470;2023-05-16T03:51:03;16.90;72.40
13721;DHT22;6932;51.438;5.470;2023-05-16T03:53:29;16.90;72.40
13721;DHT22;6932;51.438;5.470;2023-05-16T03:55:55;16.90;72.40
13721;DHT22;6932;51.438;5.470;2023-05-16T03:58:21;16.90;72.30
13721;DHT22;6932;51.438;5.470;2023-05-16T04:00:47;16.90;72.40
13721;DHT22;6932;51.438;5.470;2023-05-16T04:03:13;16.90;72.30
13721;DHT22;6932;51.438;5.470;2023-05-16T04:05:38;16.90;72.40
13721;DHT22;6932;51.438;5.470;2023-05-16T04:08:04;16.90;72.40
13721;DHT22;6932;51.438;5.470;2023-05-16T04:10:30;16.90;72.30
13721;DHT22;6932;51.438;5.470;2023-05-16T04:12:56;16.90;72.40
13721;DHT22;6932;51.438;5.470;2023-05-16T04:15:22;16.90;72.50
13721;DHT22;6932;51.438;5.470;2023-05-16T04:17:48;16.80;72.50
13721;DHT22;6932;51.438;5.470;2023-05-16T04:20:13;16.80;72.40
13721;DHT22;6932;51.438;5.470;2023-05-16T04:22:39;16.80;72.50
13721;DHT22;6932;51.438;5.470;2023-05-16T04:25:27;16.80;72.60
13721;DHT22;6932;51.438;5.470;2023-05-16T04:27:52;16.80;72.60
13721;DHT22;6932;51.438;5.470;2023-05-16T04:30:18;16.80;72.90
13721;DHT22;6932;51.438;5.470;2023-05-16T04:32:44;16.80;72.70
13721;DHT22;6932;51.438;5.470;2023-05-16T04:35:09;16.80;72.80
13721;DHT22;6932;51.438;5.470;2023-05-16T04:37:35;16.80;72.70
13721;DHT22;6932;51.438;5.470;2023-05-16T04:40:02;16.80;72.70
13721;DHT22;6932;51.438;5.470;2023-05-16T04:42:28;16.90;72.90
13721;DHT22;6932;51.438;5.470;2023-05-16T04:44:54;16.90;72.80
13721;DHT22;6932;51.438;5.470;2023-05-16T04:47:20;16.90;72.80
13721;DHT22;6932;51.438;5.470;2023-05-16T04:49:46;16.90;72.80
13721;DHT22;6932;51.438;5.470;2023-05-16T04:52:12;16.90;73.30
13721;DHT22;6932;51.438;5.470;2023-05-16T04:54:38;17.00;72.80
13721;DHT22;6932;51.438;5.470;2023-05-16T04:57:04;17.00;72.70
13721;DHT22;6932;51.438;5.470;2023-05-16T04:59:33;17.10;72.70
13721;DHT22;6932;51.438;5.470;2023-05-16T05:01:58;17.10;72.70
13721;DHT22;6932;51.438;5.470;2023-05-16T05:04:24;17.20;72.60
13721;DHT22;6932;51.438;5.470;2023-05-16T05:06:50;17.30;72.30
13721;DHT22;6932;51.438;5.470;2023-05-16T05:09:16;17.30;72.10
13721;DHT22;6932;51.438;5.470;2023-05-16T05:11:41;17.30;71.80
13721;DHT22;6932;51.438;5.470;2023-05-16T05:14:07;17.40;71.90
13721;DHT22;6932;51.438;5.470;2023-05-16T05:16:33;17.40;71.70
13721;DHT22;6932;51.438;5.470;2023-05-16T05:18:59;17.40;71.60
13721;DHT22;6932;51.438;5.470;2023-05-16T05:21:25;17.40;71.70
13721;DHT22;6932;51.438;5.470;2023-05-16T05:23:50;17.40;71.80
13721;DHT22;6932;51.438;5.470;2023-05-16T05:26:17;17.40;72.10
13721;DHT22;6932;51.438;5.470;2023-05-16T05:28:42;17.50;72.00
13721;DHT22;6932;51.438;5.470;2023-05-16T05:31:08;17.50;72.00
13721;DHT22;6932;51.438;5.470;2023-05-16T05:33:34;17.60;72.10
13721;DHT22;6932;51.438;5.470;2023-05-16T05:36:00;17.70;72.00
13721;DHT22;6932;51.438;5.470;2023-05-16T05:38:25;17.80;71.70
13721;DHT22;6932;51.438;5.470;2023-05-16T05:40:51;17.80;71.50
13721;DHT22;6932;51.438;5.470;2023-05-16T05:43:17;17.90;71.20
13721;DHT22;6932;51.438;5.470;2023-05-16T05:45:43;18.10;71.10
13721;DHT22;6932;51.438;5.470;2023-05-16T05:48:09;18.20;70.90
13721;DHT22;6932;51.438;5.470;2023-05-16T05:50:36;18.30;71.30
13721;DHT22;6932;51.438;5.470;2023-05-16T05:53:02;18.40;70.50
13721;DHT22;6932;51.438;5.470;2023-05-16T05:55:28;18.50;70.40
13721;DHT22;6932;51.438;5.470;2023-05-16T05:57:54;18.60;70.10
13721;DHT22;6932;51.438;5.470;2023-05-16T06:00:20;18.70;69.90
13721;DHT22;6932;51.438;5.470;2023-05-16T06:02:47;18.80;69.50
13721;DHT22;6932;51.438;5.470;2023-05-16T06:05:13;19.00;69.10
13721;DHT22;6932;51.438;5.470;2023-05-16T06:07:38;19.10;69.10
13721;DHT22;6932;51.438;5.470;2023-05-16T06:10:04;19.20;68.70
13721;DHT22;6932;51.438;5.470;2023-05-16T06:12:32;19.30;68.30
13721;DHT22;6932;51.438;5.470;2023-05-16T06:15:01;19.40;68.70
13721;DHT22;6932;51.438;5.470;2023-05-16T06:17:27;19.50;67.80
13721;DHT22;6932;51.438;5.470;2023-05-16T06:19:52;19.60;67.50
13721;DHT22;6932;51.438;5.470;2023-05-16T06:22:18;19.70;67.30
13721;DHT22;6932;51.438;5.470;2023-05-16T06:24:43;19.80;66.90
13721;DHT22;6932;51.438;5.470;2023-05-16T06:27:09;19.80;66.60
13721;DHT22;6932;51.438;5.470;2023-05-16T06:29:35;20.00;66.20
13721;DHT22;6932;51.438;5.470;2023-05-16T06:32:01;20.00;65.70
13721;DHT22;6932;51.438;5.470;2023-05-16T06:34:26;20.10;65.50
13721;DHT22;6932;51.438;5.470;2023-05-16T06:36:55;20.20;65.50
13721;DHT22;6932;51.438;5.470;2023-05-16T06:39:21;20.20;64.80
13721;DHT22;6932;51.438;5.470;2023-05-16T06:41:46;20.30;64.60
13721;DHT22;6932;51.438;5.470;2023-05-16T06:44:12;20.30;64.40
13721;DHT22;6932;51.438;5.470;2023-05-16T06:46:38;20.40;64.20
13721;DHT22;6932;51.438;5.470;2023-05-16T06:49:05;20.40;64.10
13721;DHT22;6932;51.438;5.470;2023-05-16T06:51:31;20.30;64.10
13721;DHT22;6932;51.438;5.470;2023-05-16T06:53:57;20.30;64.00
13721;DHT22;6932;51.438;5.470;2023-05-16T06:56:23;20.30;63.80
13721;DHT22;6932;51.438;5.470;2023-05-16T06:58:49;20.40;63.60
13721;DHT22;6932;51.438;5.470;2023-05-16T07:01:15;20.30;63.00
13721;DHT22;6932;51.438;5.470;2023-05-16T07:03:41;20.30;63.10
13721;DHT22;6932;51.438;5.470;2023-05-16T07:06:07;20.30;63.20
13721;DHT22;6932;51.438;5.470;2023-05-16T07:08:33;20.40;62.90
13721;DHT22;6932;51.438;5.470;2023-05-16T07:11:00;20.40;63.00
13721;DHT22;6932;51.438;5.470;2023-05-16T07:13:26;20.40;63.30
13721;DHT22;6932;51.438;5.470;2023-05-16T07:15:52;20.50;63.20
13721;DHT22;6932;51.438;5.470;2023-05-16T07:18:18;20.50;63.10
13721;DHT22;6932;51.438;5.470;2023-05-16T07:20:44;20.50;62.50
13721;DHT22;6932;51.438;5.470;2023-05-16T07:23:10;20.60;63.20
13721;DHT22;6932;51.438;5.470;2023-05-16T07:25:36;20.60;62.50
13721;DHT22;6932;51.438;5.470;2023-05-16T07:28:02;20.70;61.70
13721;DHT22;6932;51.438;5.470;2023-05-16T07:30:28;20.70;61.50
13721;DHT22;6932;51.438;5.470;2023-05-16T07:32:54;20.70;61.50
13721;DHT22;6932;51.438;5.470;2023-05-16T07:35:20;20.60;61.40
13721;DHT22;6932;51.438;5.470;2023-05-16T07:37:46;20.70;61.40
13721;DHT22;6932;51.438;5.470;2023-05-16T07:40:12;20.70;61.30
13721;DHT22;6932;51.438;5.470;2023-05-16T07:42:39;20.80;61.10
13721;DHT22;6932;51.438;5.470;2023-05-16T07:45:05;20.80;60.80
13721;DHT22;6932;51.438;5.470;2023-05-16T07:47:32;20.80;59.60
13721;DHT22;6932;51.438;5.470;2023-05-16T07:49:57;20.90;59.10
13721;DHT22;6932;51.438;5.470;2023-05-16T07:52:23;20.90;58.80
13721;DHT22;6932;51.438;5.470;2023-05-16T07:54:49;21.00;58.60
13721;DHT22;6932;51.438;5.470;2023-05-16T07:57:15;21.00;58.80
13721;DHT22;6932;51.438;5.470;2023-05-16T07:59:42;21.10;58.30
13721;DHT22;6932;51.438;5.470;2023-05-16T08:02:09;21.20;58.20
13721;DHT22;6932;51.438;5.470;2023-05-16T08:04:35;21.30;58.20
13721;DHT22;6932;51.438;5.470;2023-05-16T08:07:02;21.30;58.00
13721;DHT22;6932;51.438;5.470;2023-05-16T08:09:28;21.30;57.30
13721;DHT22;6932;51.438;5.470;2023-05-16T08:11:53;21.30;57.20
13721;DHT22;6932;51.438;5.470;2023-05-16T08:14:19;21.30;57.20
13721;DHT22;6932;51.438;5.470;2023-05-16T08:16:45;21.30;57.20
13721;DHT22;6932;51.438;5.470;2023-05-16T08:19:11;21.30;57.20
13721;DHT22;6932;51.438;5.470;2023-05-16T08:21:40;21.30;57.50
13721;DHT22;6932;51.438;5.470;2023-05-16T08:24:06;21.40;57.80
13721;DHT22;6932;51.438;5.470;2023-05-16T08:26:32;21.40;57.30
13721;DHT22;6932;51.438;5.470;2023-05-16T08:28:57;21.50;57.60
13721;DHT22;6932;51.438;5.470;2023-05-16T08:31:23;21.50;57.90
13721;DHT22;6932;51.438;5.470;2023-05-16T08:33:49;21.60;58.00
13721;DHT22;6932;51.438;5.470;2023-05-16T08:36:15;21.60;58.00
13721;DHT22;6932;51.438;5.470;2023-05-16T08:38:43;21.70;58.00
13721;DHT22;6932;51.438;5.470;2023-05-16T08:41:08;21.70;57.40
13721;DHT22;6932;51.438;5.470;2023-05-16T08:43:46;21.70;57.30
13721;DHT22;6932;51.438;5.470;2023-05-16T08:46:12;21.70;57.30
13721;DHT22;6932;51.438;5.470;2023-05-16T08:48:41;21.80;57.20
13721;DHT22;6932;51.438;5.470;2023-05-16T08:51:11;21.70;57.20
13721;DHT22;6932;51.438;5.470;2023-05-16T08:53:44;21.70;57.20
13721;DHT22;6932;51.438;5.470;2023-05-16T08:56:13;21.70;57.20
13721;DHT22;6932;51.438;5.470;2023-05-16T08:58:41;21.70;57.30
13721;DHT22;6932;51.438;5.470;2023-05-16T09:01:08;21.70;57.40
13721;DHT22;6932;51.438;5.470;2023-05-16T09:03:36;21.70;57.50
13721;DHT22;6932;51.438;5.470;2023-05-16T09:06:04;21.60;57.60
13721;DHT22;6932;51.438;5.470;2023-05-16T09:08:30;21.50;58.00
13721;DHT22;6932;51.438;5.470;2023-05-16T09:10:56;21.50;57.30
13721;DHT22;6932;51.438;5.470;2023-05-16T09:17:07;21.50;56.80
13721;DHT22;6932;51.438;5.470;2023-05-16T09:19:41;21.70;56.00
13721;DHT22;6932;51.438;5.470;2023-05-16T09:22:12;21.70;56.00
13721;DHT22;6932;51.438;5.470;2023-05-16T09:24:43;21.70;56.20
13721;DHT22;6932;51.438;5.470;2023-05-16T09:27:12;21.70;56.80
13721;DHT22;6932;51.438;5.470;2023-05-16T09:29:40;21.80;57.00
13721;DHT22;6932;51.438;5.470;2023-05-16T09:32:12;21.80;57.30
13721;DHT22;6932;51.438;5.470;2023-05-16T09:34:48;21.80;57.50
13721;DHT22;6932;51.438;5.470;2023-05-16T09:37:16;21.80;57.80
13721;DHT22;6932;51.438;5.470;2023-05-16T09:39:49;21.80;58.00
13721;DHT22;6932;51.438;5.470;2023-05-16T09:42:17;21.80;58.10
13721;DHT22;6932;51.438;5.470;2023-05-16T09:44:51;21.80;57.80
13721;DHT22;6932;51.438;5.470;2023-05-16T09:47:20;21.90;57.30
13721;DHT22;6932;51.438;5.470;2023-05-16T09:49:50;22.00;57.30
13721;DHT22;6932;51.438;5.470;2023-05-16T09:52:17;22.00;57.30
13721;DHT22;6932;51.438;5.470;2023-05-16T09:54:46;22.10;57.50
13721;DHT22;6932;51.438;5.470;2023-05-16T09:57:21;22.10;57.00
13721;DHT22;6932;51.438;5.470;2023-05-16T09:59:48;22.10;56.40
13721;DHT22;6932;51.438;5.470;2023-05-16T10:02:15;22.10;56.30
13721;DHT22;6932;51.438;5.470;2023-05-16T10:04:41;22.10;56.50
13721;DHT22;6932;51.438;5.470;2023-05-16T10:07:07;22.20;56.70
13721;DHT22;6932;51.438;5.470;2023-05-16T10:09:35;22.20;56.80
13721;DHT22;6932;51.438;5.470;2023-05-16T10:12:03;22.20;56.60
13721;DHT22;6932;51.438;5.470;2023-05-16T10:14:40;22.30;56.40
13721;DHT22;6932;51.438;5.470;2023-05-16T10:17:09;22.30;56.80
13721;DHT22;6932;51.438;5.470;2023-05-16T10:19:38;22.30;56.50
13721;DHT22;6932;51.438;5.470;2023-05-16T10:22:06;22.30;56.30
13721;DHT22;6932;51.438;5.470;2023-05-16T10:27:57;22.40;56.20
13721;DHT22;6932;51.438;5.470;2023-05-16T10:30:24;22.50;56.00
13721;DHT22;6932;51.438;5.470;2023-05-16T10:32:52;22.60;55.40
13721;DHT22;6932;51.438;5.470;2023-05-16T10:35:19;22.60;55.40
13721;DHT22;6932;51.438;5.470;2023-05-16T10:37:47;22.70;54.20
13721;DHT22;6932;51.438;5.470;2023-05-16T10:40:17;22.80;53.60
13721;DHT22;6932;51.438;5.470;2023-05-16T10:42:54;22.80;53.40
13721;DHT22;6932;51.438;5.470;2023-05-16T10:45:21;22.80;53.20
13721;DHT22;6932;51.438;5.470;2023-05-16T10:48:02;22.90;52.60
13721;DHT22;6932;51.438;5.470;2023-05-16T10:50:43;22.90;52.60
13721;DHT22;6932;51.438;5.470;2023-05-16T10:53:31;22.90;52.50
13721;DHT22;6932;51.438;5.470;2023-05-16T11:06:34;22.90;52.10
13721;DHT22;6932;51.438;5.470;2023-05-16T11:11:59;22.90;51.80
13721;DHT22;6932;51.438;5.470;2023-05-16T11:17:12;23.00;51.80
13721;DHT22;6932;51.438;5.470;2023-05-16T11:23:29;23.00;51.70
13721;DHT22;6932;51.438;5.470;2023-05-16T11:25:57;23.10;51.30
13721;DHT22;6932;51.438;5.470;2023-05-16T11:28:25;23.10;51.50
13721;DHT22;6932;51.438;5.470;2023-05-16T11:34:42;23.10;52.60
13721;DHT22;6932;51.438;5.470;2023-05-16T11:37:10;23.00;52.40
13721;DHT22;6932;51.438;5.470;2023-05-16T11:39:36;23.00;52.00
13721;DHT22;6932;51.438;5.470;2023-05-16T11:42:02;22.90;52.20
13721;DHT22;6932;51.438;5.470;2023-05-16T11:44:27;22.80;51.70
13721;DHT22;6932;51.438;5.470;2023-05-16T11:46:53;22.80;51.70
13721;DHT22;6932;51.438;5.470;2023-05-16T11:49:19;22.70;51.90
13721;DHT22;6932;51.438;5.470;2023-05-16T11:51:45;22.50;52.20
13721;DHT22;6932;51.438;5.470;2023-05-16T11:54:11;22.50;52.40
13721;DHT22;6932;51.438;5.470;2023-05-16T11:56:39;22.40;52.60
13721;DHT22;6932;51.438;5.470;2023-05-16T11:59:06;22.30;53.00
13721;DHT22;6932;51.438;5.470;2023-05-16T12:01:38;22.20;53.30
13721;DHT22;6932;51.438;5.470;2023-05-16T12:06:35;22.10;54.40
13721;DHT22;6932;51.438;5.470;2023-05-16T12:12:45;22.00;54.70
13721;DHT22;6932;51.438;5.470;2023-05-16T12:15:13;22.00;54.50
13721;DHT22;6932;51.438;5.470;2023-05-16T12:17:40;22.00;54.40
13721;DHT22;6932;51.438;5.470;2023-05-16T12:20:09;22.00;54.00
13721;DHT22;6932;51.438;5.470;2023-05-16T12:22:41;22.00;54.00
13721;DHT22;6932;51.438;5.470;2023-05-16T12:25:24;22.00;54.00
13721;DHT22;6932;51.438;5.470;2023-05-16T12:27:58;22.00;54.10
13721;DHT22;6932;51.438;5.470;2023-05-16T12:30:26;22.00;54.00
13721;DHT22;6932;51.438;5.470;2023-05-16T12:33:00;22.00;54.10
13721;DHT22;6932;51.438;5.470;2023-05-16T12:35:32;21.90;54.20
13721;DHT22;6932;51.438;5.470;2023-05-16T12:38:02;21.90;54.70
13721;DHT22;6932;51.438;5.470;2023-05-16T12:40:32;21.90;54.40
13721;DHT22;6932;51.438;5.470;2023-05-16T12:43:01;21.90;54.60
13721;DHT22;6932;51.438;5.470;2023-05-16T12:45:27;21.90;54.30
13721;DHT22;6932;51.438;5.470;2023-05-16T12:47:53;21.80;53.80
13721;DHT22;6932;51.438;5.470;2023-05-16T12:50:19;21.80;54.00
13721;DHT22;6932;51.438;5.470;2023-05-16T12:52:49;21.80;54.30
13721;DHT22;6932;51.438;5.470;2023-05-16T12:55:20;21.80;54.50
13721;DHT22;6932;51.438;5.470;2023-05-16T12:57:48;21.80;54.80
13721;DHT22;6932;51.438;5.470;2023-05-16T13:00:19;21.70;54.70
13721;DHT22;6932;51.438;5.470;2023-05-16T13:02:46;21.80;55.10
13721;DHT22;6932;51.438;5.470;2023-05-16T13:05:13;21.80;54.90
13721;DHT22;6932;51.438;5.470;2023-05-16T13:07:40;21.80;54.90
13721;DHT22;6932;51.438;5.470;2023-05-16T13:10:10;21.80;54.80
13721;DHT22;6932;51.438;5.470;2023-05-16T13:12:40;21.80;54.90
13721;DHT22;6932;51.438;5.470;2023-05-16T13:15:09;21.80;54.80
13721;DHT22;6932;51.438;5.470;2023-05-16T13:17:41;21.80;54.80
13721;DHT22;6932;51.438;5.470;2023-05-16T13:20:11;21.80;54.80
13721;DHT22;6932;51.438;5.470;2023-05-16T13:22:39;21.80;53.90
13721;DHT22;6932;51.438;5.470;2023-05-16T13:25:06;21.80;54.00
13721;DHT22;6932;51.438;5.470;2023-05-16T13:27:33;21.80;54.00
13721;DHT22;6932;51.438;5.470;2023-05-16T13:29:59;21.70;54.30
13721;DHT22;6932;51.438;5.470;2023-05-16T13:32:25;21.70;54.60
13721;DHT22;6932;51.438;5.470;2023-05-16T13:34:51;21.70;54.50
13721;DHT22;6932;51.438;5.470;2023-05-16T13:37:17;21.70;54.70
13721;DHT22;6932;51.438;5.470;2023-05-16T13:39:43;21.70;54.80
13721;DHT22;6932;51.438;5.470;2023-05-16T13:42:09;21.70;55.10
13721;DHT22;6932;51.438;5.470;2023-05-16T13:44:35;21.70;55.10
13721;DHT22;6932;51.438;5.470;2023-05-16T13:47:01;21.70;55.20
13721;DHT22;6932;51.438;5.470;2023-05-16T13:49:27;21.60;55.20
13721;DHT22;6932;51.438;5.470;2023-05-16T13:51:53;21.60;55.40
13721;DHT22;6932;51.438;5.470;2023-05-16T13:54:19;21.50;55.60
13721;DHT22;6932;51.438;5.470;2023-05-16T13:56:48;21.50;55.80
13721;DHT22;6932;51.438;5.470;2023-05-16T13:59:14;21.50;55.70
13721;DHT22;6932;51.438;5.470;2023-05-16T14:01:40;21.50;55.80
13721;DHT22;6932;51.438;5.470;2023-05-16T14:04:06;21.50;55.80
13721;DHT22;6932;51.438;5.470;2023-05-16T14:06:32;21.40;55.80
13721;DHT22;6932;51.438;5.470;2023-05-16T14:08:57;21.40;55.80
13721;DHT22;6932;51.438;5.470;2023-05-16T14:11:23;21.40;55.90
13721;DHT22;6932;51.438;5.470;2023-05-16T14:13:52;21.40;56.00
13721;DHT22;6932;51.438;5.470;2023-05-16T14:16:19;21.30;56.00
13721;DHT22;6932;51.438;5.470;2023-05-16T14:18:45;21.30;56.00
13721;DHT22;6932;51.438;5.470;2023-05-16T14:21:11;21.30;56.20
13721;DHT22;6932;51.438;5.470;2023-05-16T14:23:37;21.20;56.00
13721;DHT22;6932;51.438;5.470;2023-05-16T14:26:03;21.20;56.10
13721;DHT22;6932;51.438;5.470;2023-05-16T14:28:29;21.20;56.30
13721;DHT22;6932;51.438;5.470;2023-05-16T14:30:59;21.20;56.50
13721;DHT22;6932;51.438;5.470;2023-05-16T14:33:26;21.20;56.60
13721;DHT22;6932;51.438;5.470;2023-05-16T14:35:52;21.20;56.80
13721;DHT22;6932;51.438;5.470;2023-05-16T14:38:18;21.10;56.70
13721;DHT22;6932;51.438;5.470;2023-05-16T14:40:44;21.20;56.90
13721;DHT22;6932;51.438;5.470;2023-05-16T14:43:10;21.20;56.80
13721;DHT22;6932;51.438;5.470;2023-05-16T14:45:37;21.20;56.80
13721;DHT22;6932;51.438;5.470;2023-05-16T14:48:07;21.20;56.60
13721;DHT22;6932;51.438;5.470;2023-05-16T14:50:33;21.20;56.60
13721;DHT22;6932;51.438;5.470;2023-05-16T14:52:59;21.20;56.80
13721;DHT22;6932;51.438;5.470;2023-05-16T14:55:25;21.20;57.50
13721;DHT22;6932;51.438;5.470;2023-05-16T14:57:51;21.20;56.70
13721;DHT22;6932;51.438;5.470;2023-05-16T15:00:22;21.20;56.40
13721;DHT22;6932;51.438;5.470;2023-05-16T15:06:30;21.10;56.70
13721;DHT22;6932;51.438;5.470;2023-05-16T15:08:56;21.20;56.30
13721;DHT22;6932;51.438;5.470;2023-05-16T15:11:21;21.20;56.10
13721;DHT22;6932;51.438;5.470;2023-05-16T15:13:47;21.10;56.30
13721;DHT22;6932;51.438;5.470;2023-05-16T15:16:13;21.10;56.20
13721;DHT22;6932;51.438;5.470;2023-05-16T15:18:40;21.10;56.20
13721;DHT22;6932;51.438;5.470;2023-05-16T15:21:05;21.10;56.20
13721;DHT22;6932;51.438;5.470;2023-05-16T15:27:00;21.10;56.10
13721;DHT22;6932;51.438;5.470;2023-05-16T15:29:26;21.10;56.10
13721;DHT22;6932;51.438;5.470;2023-05-16T15:31:51;21.10;56.30
13721;DHT22;6932;51.438;5.470;2023-05-16T15:34:17;21.10;56.20
13721;DHT22;6932;51.438;5.470;2023-05-16T15:36:43;21.10;56.20
13721;DHT22;6932;51.438;5.470;2023-05-16T15:39:08;21.10;56.20
13721;DHT22;6932;51.438;5.470;2023-05-16T15:41:35;21.10;56.40
13721;DHT22;6932;51.438;5.470;2023-05-16T15:44:00;21.10;56.50
13721;DHT22;6932;51.438;5.470;2023-05-16T15:46:26;21.10;56.20
13721;DHT22;6932;51.438;5.470;2023-05-16T15:48:54;21.10;56.00
13721;DHT22;6932;51.438;5.470;2023-05-16T15:51:20;21.10;55.90
13721;DHT22;6932;51.438;5.470;2023-05-16T15:53:46;21.10;55.70
13721;DHT22;6932;51.438;5.470;2023-05-16T15:56:12;21.20;55.20
13721;DHT22;6932;51.438;5.470;2023-05-16T15:58:37;21.20;55.20
13721;DHT22;6932;51.438;5.470;2023-05-16T16:01:03;21.20;55.30
13721;DHT22;6932;51.438;5.470;2023-05-16T16:03:29;21.30;55.20
13721;DHT22;6932;51.438;5.470;2023-05-16T16:05:55;21.30;55.10
13721;DHT22;6932;51.438;5.470;2023-05-16T16:08:21;21.30;55.00
13721;DHT22;6932;51.438;5.470;2023-05-16T16:10:46;21.30;54.90
13721;DHT22;6932;51.438;5.470;2023-05-16T16:13:12;21.30;54.80
13721;DHT22;6932;51.438;5.470;2023-05-16T16:15:38;21.30;54.50
13721;DHT22;6932;51.438;5.470;2023-05-16T16:18:05;21.30;54.20
13721;DHT22;6932;51.438;5.470;2023-05-16T16:20:31;21.30;54.00
13721;DHT22;6932;51.438;5.470;2023-05-16T16:22:57;21.30;54.00
13721;DHT22;6932;51.438;5.470;2023-05-16T16:25:23;21.30;54.20
13721;DHT22;6932;51.438;5.470;2023-05-16T16:27:49;21.30;54.40
13721;DHT22;6932;51.438;5.470;2023-05-16T16:30:16;21.30;54.60
13721;DHT22;6932;51.438;5.470;2023-05-16T16:32:41;21.20;54.70
13721;DHT22;6932;51.438;5.470;2023-05-16T16:35:07;21.20;54.90
13721;DHT22;6932;51.438;5.470;2023-05-16T16:37:33;21.20;55.00
13721;DHT22;6932;51.438;5.470;2023-05-16T16:43:49;21.10;55.10
13721;DHT22;6932;51.438;5.470;2023-05-16T16:46:15;21.10;55.10
13721;DHT22;6932;51.438;5.470;2023-05-16T16:48:40;21.10;54.50
13721;DHT22;6932;51.438;5.470;2023-05-16T16:51:06;21.10;54.40
13721;DHT22;6932;51.438;5.470;2023-05-16T16:53:32;21.10;54.40
13721;DHT22;6932;51.438;5.470;2023-05-16T16:55:59;21.10;54.80
13721;DHT22;6932;51.438;5.470;2023-05-16T16:58:25;21.00;55.50
13721;DHT22;6932;51.438;5.470;2023-05-16T17:00:50;21.00;55.00
13721;DHT22;6932;51.438;5.470;2023-05-16T17:03:39;20.90;55.20
13721;DHT22;6932;51.438;5.470;2023-05-16T17:06:05;20.80;55.60
13721;DHT22;6932;51.438;5.470;2023-05-16T17:08:30;20.70;56.10
13721;DHT22;6932;51.438;5.470;2023-05-16T17:10:56;20.50;56.50